sensor_id;sensor_type;location;lat;lon;timestamp;P1;durP1;ratioP1;P2;durP2;ratioP2
75171;SDS011;63750;52.418;20.742;2022-10-13T00:00:47;44.20;;;35.10;;
75171;SDS011;63750;52.418;20.742;2022-10-13T00:03:16;43.00;;;33.50;;
75171;SDS011;63750;52.418;20.742;2022-10-13T00:05:45;39.10;;;32.70;;
75171;SDS011;63750;52.418;20.742;2022-10-13T00:08:16;39.90;;;33.20;;
75171;SDS011;63750;52.418;20.742;2022-10-13T00:10:46;41.50;;;33.00;;
75171;SDS011;63750;52.418;20.742;2022-10-13T00:13:16;42.70;;;33.20;;
75171;SDS011;63750;52.418;20.742;2022-10-13T00:15:45;47.20;;;35.10;;
75171;SDS011;63750;52.418;20.742;2022-10-13T00:18:14;39.20;;;33.30;;
75171;SDS011;63750;52.418;20.742;2022-10-13T00:20:43;39.30;;;34.40;;
75171;SDS011;63750;52.418;20.742;2022-10-13T00:23:13;39.50;;;33.60;;
75171;SDS011;63750;52.418;20.742;2022-10-13T00:25:42;43.20;;;33.90;;
75171;SDS011;63750;52.418;20.742;2022-10-13T00:28:13;42.30;;;33.20;;
75171;SDS011;63750;52.418;20.742;2022-10-13T00:30:43;42.80;;;33.60;;
75171;SDS011;63750;52.418;20.742;2022-10-13T00:33:12;39.90;;;33.60;;
75171;SDS011;63750;52.418;20.742;2022-10-13T00:35:41;38.50;;;32.40;;
75171;SDS011;63750;52.418;20.742;2022-10-13T00:38:10;39.40;;;33.20;;
75171;SDS011;63750;52.418;20.742;2022-10-13T00:40:43;38.50;;;31.80;;
75171;SDS011;63750;52.418;20.742;2022-10-13T00:43:19;35.50;;;30.80;;
75171;SDS011;63750;52.418;20.742;2022-10-13T00:45:51;39.50;;;32.70;;
75171;SDS011;63750;52.418;20.742;2022-10-13T00:48:21;36.40;;;31.00;;
75171;SDS011;63750;52.418;20.742;2022-10-13T00:50:53;41.50;;;33.30;;
75171;SDS011;63750;52.418;20.742;2022-10-13T00:53:24;40.20;;;32.70;;
75171;SDS011;63750;52.418;20.742;2022-10-13T00:55:58;42.40;;;36.20;;
75171;SDS011;63750;52.418;20.742;2022-10-13T00:58:28;44.80;;;35.50;;
75171;SDS011;63750;52.418;20.742;2022-10-13T01:00:57;44.20;;;36.90;;
75171;SDS011;63750;52.418;20.742;2022-10-13T01:03:26;47.10;;;38.10;;
75171;SDS011;63750;52.418;20.742;2022-10-13T01:05:56;47.10;;;36.30;;
75171;SDS011;63750;52.418;20.742;2022-10-13T01:08:27;40.40;;;34.40;;
75171;SDS011;63750;52.418;20.742;2022-10-13T01:10:57;41.70;;;33.80;;
75171;SDS011;63750;52.418;20.742;2022-10-13T01:13:41;39.30;;;32.30;;
75171;SDS011;63750;52.418;20.742;2022-10-13T01:16:18;41.20;;;33.00;;
75171;SDS011;63750;52.418;20.742;2022-10-13T01:18:59;43.10;;;33.20;;
75171;SDS011;63750;52.418;20.742;2022-10-13T01:21:47;41.90;;;33.30;;
75171;SDS011;63750;52.418;20.742;2022-10-13T01:24:36;44.40;;;34.20;;
75171;SDS011;63750;52.418;20.742;2022-10-13T01:27:13;38.80;;;32.40;;
75171;SDS011;63750;52.418;20.742;2022-10-13T01:29:58;37.00;;;32.50;;
75171;SDS011;63750;52.418;20.742;2022-10-13T01:32:35;42.60;;;34.20;;
75171;SDS011;63750;52.418;20.742;2022-10-13T01:35:15;42.50;;;33.30;;
75171;SDS011;63750;52.418;20.742;2022-10-13T01:37:50;42.00;;;33.10;;
75171;SDS011;63750;52.418;20.742;2022-10-13T01:40:25;40.90;;;34.00;;
75171;SDS011;63750;52.418;20.742;2022-10-13T01:42:57;40.10;;;32.60;;
75171;SDS011;63750;52.418;20.742;2022-10-13T01:45:30;42.10;;;33.60;;
75171;SDS011;63750;52.418;20.742;2022-10-13T01:48:04;38.50;;;31.60;;
75171;SDS011;63750;52.418;20.742;2022-10-13T01:50:33;37.90;;;31.70;;
75171;SDS011;63750;52.418;20.742;2022-10-13T01:53:04;37.00;;;31.40;;
75171;SDS011;63750;52.418;20.742;2022-10-13T01:55:33;41.00;;;32.00;;
75171;SDS011;63750;52.418;20.742;2022-10-13T01:58:02;38.30;;;31.80;;
75171;SDS011;63750;52.418;20.742;2022-10-13T02:00:30;38.30;;;32.80;;
75171;SDS011;63750;52.418;20.742;2022-10-13T02:03:11;39.60;;;31.90;;
75171;SDS011;63750;52.418;20.742;2022-10-13T02:05:46;41.80;;;32.80;;
75171;SDS011;63750;52.418;20.742;2022-10-13T02:08:24;39.10;;;33.60;;
75171;SDS011;63750;52.418;20.742;2022-10-13T02:11:00;42.50;;;34.30;;
75171;SDS011;63750;52.418;20.742;2022-10-13T02:13:36;37.30;;;31.20;;
75171;SDS011;63750;52.418;20.742;2022-10-13T02:16:09;38.20;;;31.20;;
75171;SDS011;63750;52.418;20.742;2022-10-13T02:18:39;39.70;;;32.40;;
75171;SDS011;63750;52.418;20.742;2022-10-13T02:21:09;37.70;;;32.40;;
75171;SDS011;63750;52.418;20.742;2022-10-13T02:23:37;40.50;;;31.60;;
75171;SDS011;63750;52.418;20.742;2022-10-13T02:26:07;43.30;;;33.30;;
75171;SDS011;63750;52.418;20.742;2022-10-13T02:28:36;42.10;;;33.40;;
75171;SDS011;63750;52.418;20.742;2022-10-13T02:31:06;41.50;;;33.50;;
75171;SDS011;63750;52.418;20.742;2022-10-13T02:33:34;41.90;;;33.90;;
75171;SDS011;63750;52.418;20.742;2022-10-13T02:36:04;41.90;;;34.80;;
75171;SDS011;63750;52.418;20.742;2022-10-13T02:38:32;44.50;;;34.00;;
75171;SDS011;63750;52.418;20.742;2022-10-13T02:41:00;44.10;;;34.70;;
75171;SDS011;63750;52.418;20.742;2022-10-13T02:43:29;41.00;;;34.50;;
75171;SDS011;63750;52.418;20.742;2022-10-13T02:45:57;42.70;;;33.60;;
75171;SDS011;63750;52.418;20.742;2022-10-13T02:48:25;40.20;;;34.30;;
75171;SDS011;63750;52.418;20.742;2022-10-13T02:50:54;42.70;;;34.70;;
75171;SDS011;63750;52.418;20.742;2022-10-13T02:53:22;44.30;;;33.70;;
75171;SDS011;63750;52.418;20.742;2022-10-13T02:55:50;40.10;;;34.90;;
75171;SDS011;63750;52.418;20.742;2022-10-13T02:58:19;43.60;;;34.20;;
75171;SDS011;63750;52.418;20.742;2022-10-13T03:00:47;42.10;;;34.00;;
75171;SDS011;63750;52.418;20.742;2022-10-13T03:03:15;39.90;;;33.20;;
75171;SDS011;63750;52.418;20.742;2022-10-13T03:05:44;37.90;;;33.20;;
75171;SDS011;63750;52.418;20.742;2022-10-13T03:08:12;37.00;;;31.80;;
75171;SDS011;63750;52.418;20.742;2022-10-13T03:10:40;40.40;;;32.70;;
75171;SDS011;63750;52.418;20.742;2022-10-13T03:13:08;39.00;;;31.90;;
75171;SDS011;63750;52.418;20.742;2022-10-13T03:15:36;39.90;;;33.00;;
75171;SDS011;63750;52.418;20.742;2022-10-13T03:18:04;37.50;;;31.70;;
75171;SDS011;63750;52.418;20.742;2022-10-13T03:20:33;34.80;;;30.80;;
75171;SDS011;63750;52.418;20.742;2022-10-13T03:23:01;35.30;;;31.10;;
75171;SDS011;63750;52.418;20.742;2022-10-13T03:25:29;35.90;;;30.70;;
75171;SDS011;63750;52.418;20.742;2022-10-13T03:27:58;33.40;;;28.30;;
75171;SDS011;63750;52.418;20.742;2022-10-13T03:30:26;33.50;;;29.80;;
75171;SDS011;63750;52.418;20.742;2022-10-13T03:32:54;32.90;;;29.00;;
75171;SDS011;63750;52.418;20.742;2022-10-13T03:35:22;32.00;;;28.50;;
75171;SDS011;63750;52.418;20.742;2022-10-13T03:37:50;32.30;;;28.90;;
75171;SDS011;63750;52.418;20.742;2022-10-13T03:40:19;34.60;;;29.00;;
75171;SDS011;63750;52.418;20.742;2022-10-13T03:42:47;33.50;;;28.40;;
75171;SDS011;63750;52.418;20.742;2022-10-13T03:45:15;35.20;;;29.80;;
75171;SDS011;63750;52.418;20.742;2022-10-13T03:47:43;34.20;;;30.50;;
75171;SDS011;63750;52.418;20.742;2022-10-13T03:50:12;36.20;;;31.80;;
75171;SDS011;63750;52.418;20.742;2022-10-13T03:52:40;37.40;;;31.00;;
75171;SDS011;63750;52.418;20.742;2022-10-13T03:55:27;37.80;;;32.70;;
75171;SDS011;63750;52.418;20.742;2022-10-13T03:57:55;40.00;;;34.00;;
75171;SDS011;63750;52.418;20.742;2022-10-13T04:00:23;42.00;;;35.60;;
75171;SDS011;63750;52.418;20.742;2022-10-13T04:02:51;45.50;;;37.40;;
75171;SDS011;63750;52.418;20.742;2022-10-13T04:05:20;43.30;;;36.60;;
75171;SDS011;63750;52.418;20.742;2022-10-13T04:07:48;46.50;;;37.30;;
75171;SDS011;63750;52.418;20.742;2022-10-13T04:10:16;48.00;;;38.30;;
75171;SDS011;63750;52.418;20.742;2022-10-13T04:12:45;49.40;;;40.30;;
75171;SDS011;63750;52.418;20.742;2022-10-13T04:15:15;47.80;;;41.30;;
75171;SDS011;63750;52.418;20.742;2022-10-13T04:17:43;55.50;;;43.60;;
75171;SDS011;63750;52.418;20.742;2022-10-13T04:20:11;57.70;;;43.90;;
75171;SDS011;63750;52.418;20.742;2022-10-13T04:22:40;56.00;;;44.70;;
75171;SDS011;63750;52.418;20.742;2022-10-13T04:25:09;54.20;;;44.70;;
75171;SDS011;63750;52.418;20.742;2022-10-13T04:27:37;56.80;;;44.50;;
75171;SDS011;63750;52.418;20.742;2022-10-13T04:30:06;53.90;;;44.80;;
75171;SDS011;63750;52.418;20.742;2022-10-13T04:32:36;55.10;;;45.20;;
75171;SDS011;63750;52.418;20.742;2022-10-13T04:35:05;57.40;;;45.10;;
75171;SDS011;63750;52.418;20.742;2022-10-13T04:37:33;52.70;;;43.20;;
75171;SDS011;63750;52.418;20.742;2022-10-13T04:40:02;51.90;;;42.80;;
75171;SDS011;63750;52.418;20.742;2022-10-13T04:42:31;55.30;;;44.20;;
75171;SDS011;63750;52.418;20.742;2022-10-13T04:45:00;51.50;;;42.50;;
75171;SDS011;63750;52.418;20.742;2022-10-13T04:47:29;50.20;;;41.50;;
75171;SDS011;63750;52.418;20.742;2022-10-13T04:49:57;49.20;;;41.60;;
75171;SDS011;63750;52.418;20.742;2022-10-13T04:52:25;54.30;;;43.90;;
75171;SDS011;63750;52.418;20.742;2022-10-13T04:54:54;52.40;;;44.10;;
75171;SDS011;63750;52.418;20.742;2022-10-13T04:57:25;50.70;;;42.30;;
75171;SDS011;63750;52.418;20.742;2022-10-13T04:59:54;51.30;;;43.70;;
75171;SDS011;63750;52.418;20.742;2022-10-13T05:02:22;54.60;;;45.10;;
75171;SDS011;63750;52.418;20.742;2022-10-13T05:04:50;52.10;;;44.00;;
75171;SDS011;63750;52.418;20.742;2022-10-13T05:07:18;54.70;;;46.30;;
75171;SDS011;63750;52.418;20.742;2022-10-13T05:09:46;51.70;;;43.70;;
75171;SDS011;63750;52.418;20.742;2022-10-13T05:12:16;56.10;;;44.70;;
75171;SDS011;63750;52.418;20.742;2022-10-13T05:14:44;54.50;;;44.30;;
75171;SDS011;63750;52.418;20.742;2022-10-13T05:17:12;53.20;;;44.40;;
75171;SDS011;63750;52.418;20.742;2022-10-13T05:19:40;56.80;;;45.80;;
75171;SDS011;63750;52.418;20.742;2022-10-13T05:22:09;55.20;;;45.90;;
75171;SDS011;63750;52.418;20.742;2022-10-13T05:24:37;57.00;;;45.30;;
75171;SDS011;63750;52.418;20.742;2022-10-13T05:27:07;56.60;;;46.60;;
75171;SDS011;63750;52.418;20.742;2022-10-13T05:29:38;54.80;;;46.80;;
75171;SDS011;63750;52.418;20.742;2022-10-13T05:32:07;56.70;;;45.80;;
75171;SDS011;63750;52.418;20.742;2022-10-13T05:34:35;58.70;;;46.10;;
75171;SDS011;63750;52.418;20.742;2022-10-13T05:37:03;56.10;;;46.10;;
75171;SDS011;63750;52.418;20.742;2022-10-13T05:39:31;57.40;;;46.60;;
75171;SDS011;63750;52.418;20.742;2022-10-13T05:41:59;57.50;;;47.10;;
75171;SDS011;63750;52.418;20.742;2022-10-13T05:44:28;58.70;;;47.90;;
75171;SDS011;63750;52.418;20.742;2022-10-13T05:46:56;59.50;;;47.60;;
75171;SDS011;63750;52.418;20.742;2022-10-13T05:49:24;61.20;;;49.00;;
75171;SDS011;63750;52.418;20.742;2022-10-13T05:51:53;59.10;;;47.00;;
75171;SDS011;63750;52.418;20.742;2022-10-13T05:54:25;62.70;;;49.10;;
75171;SDS011;63750;52.418;20.742;2022-10-13T05:56:59;65.40;;;49.40;;
75171;SDS011;63750;52.418;20.742;2022-10-13T05:59:34;59.90;;;47.80;;
75171;SDS011;63750;52.418;20.742;2022-10-13T06:02:06;61.20;;;49.50;;
75171;SDS011;63750;52.418;20.742;2022-10-13T06:04:38;64.80;;;49.90;;
75171;SDS011;63750;52.418;20.742;2022-10-13T06:07:10;60.00;;;48.20;;
75171;SDS011;63750;52.418;20.742;2022-10-13T06:09:39;58.50;;;48.40;;
75171;SDS011;63750;52.418;20.742;2022-10-13T06:12:08;58.40;;;48.10;;
75171;SDS011;63750;52.418;20.742;2022-10-13T06:14:37;62.70;;;50.20;;
75171;SDS011;63750;52.418;20.742;2022-10-13T06:17:05;60.80;;;49.80;;
75171;SDS011;63750;52.418;20.742;2022-10-13T06:19:33;60.70;;;49.60;;
75171;SDS011;63750;52.418;20.742;2022-10-13T06:22:02;59.10;;;49.50;;
75171;SDS011;63750;52.418;20.742;2022-10-13T06:24:30;58.60;;;49.60;;
75171;SDS011;63750;52.418;20.742;2022-10-13T06:26:58;63.00;;;50.80;;
75171;SDS011;63750;52.418;20.742;2022-10-13T06:29:27;62.70;;;50.60;;
75171;SDS011;63750;52.418;20.742;2022-10-13T06:31:55;64.50;;;51.00;;
75171;SDS011;63750;52.418;20.742;2022-10-13T06:34:23;63.60;;;50.40;;
75171;SDS011;63750;52.418;20.742;2022-10-13T06:36:52;64.10;;;51.30;;
75171;SDS011;63750;52.418;20.742;2022-10-13T06:39:22;61.90;;;52.70;;
75171;SDS011;63750;52.418;20.742;2022-10-13T06:41:50;68.20;;;52.90;;
75171;SDS011;63750;52.418;20.742;2022-10-13T06:44:18;66.90;;;52.80;;
75171;SDS011;63750;52.418;20.742;2022-10-13T06:46:47;62.70;;;50.50;;
75171;SDS011;63750;52.418;20.742;2022-10-13T06:49:15;62.70;;;51.90;;
75171;SDS011;63750;52.418;20.742;2022-10-13T06:51:43;63.30;;;51.60;;
75171;SDS011;63750;52.418;20.742;2022-10-13T06:54:12;57.40;;;50.60;;
75171;SDS011;63750;52.418;20.742;2022-10-13T06:56:40;66.30;;;50.80;;
75171;SDS011;63750;52.418;20.742;2022-10-13T06:59:09;60.60;;;49.50;;
75171;SDS011;63750;52.418;20.742;2022-10-13T07:01:37;61.90;;;50.00;;
75171;SDS011;63750;52.418;20.742;2022-10-13T07:04:05;61.30;;;50.40;;
75171;SDS011;63750;52.418;20.742;2022-10-13T07:06:34;68.00;;;51.50;;
75171;SDS011;63750;52.418;20.742;2022-10-13T07:09:03;60.30;;;49.80;;
75171;SDS011;63750;52.418;20.742;2022-10-13T07:11:32;63.20;;;50.60;;
75171;SDS011;63750;52.418;20.742;2022-10-13T07:14:00;63.40;;;48.60;;
75171;SDS011;63750;52.418;20.742;2022-10-13T07:16:29;58.80;;;48.10;;
75171;SDS011;63750;52.418;20.742;2022-10-13T07:18:57;58.80;;;48.30;;
75171;SDS011;63750;52.418;20.742;2022-10-13T07:21:26;59.30;;;45.80;;
75171;SDS011;63750;52.418;20.742;2022-10-13T07:23:54;55.00;;;45.30;;
75171;SDS011;63750;52.418;20.742;2022-10-13T07:26:22;60.60;;;47.50;;
75171;SDS011;63750;52.418;20.742;2022-10-13T07:28:51;51.50;;;43.20;;
75171;SDS011;63750;52.418;20.742;2022-10-13T07:31:19;48.90;;;41.70;;
75171;SDS011;63750;52.418;20.742;2022-10-13T07:33:48;47.70;;;39.80;;
75171;SDS011;63750;52.418;20.742;2022-10-13T07:36:16;45.80;;;36.70;;
75171;SDS011;63750;52.418;20.742;2022-10-13T07:38:45;44.10;;;36.60;;
75171;SDS011;63750;52.418;20.742;2022-10-13T07:41:14;46.60;;;38.00;;
75171;SDS011;63750;52.418;20.742;2022-10-13T07:43:42;43.70;;;36.60;;
75171;SDS011;63750;52.418;20.742;2022-10-13T07:46:11;45.90;;;34.70;;
75171;SDS011;63750;52.418;20.742;2022-10-13T07:48:39;38.90;;;33.70;;
75171;SDS011;63750;52.418;20.742;2022-10-13T07:51:09;39.90;;;32.80;;
75171;SDS011;63750;52.418;20.742;2022-10-13T07:53:38;36.10;;;32.20;;
75171;SDS011;63750;52.418;20.742;2022-10-13T07:56:09;40.30;;;33.70;;
75171;SDS011;63750;52.418;20.742;2022-10-13T07:58:40;38.90;;;32.80;;
75171;SDS011;63750;52.418;20.742;2022-10-13T08:01:10;40.60;;;31.40;;
75171;SDS011;63750;52.418;20.742;2022-10-13T08:03:39;36.00;;;32.10;;
75171;SDS011;63750;52.418;20.742;2022-10-13T08:06:08;35.50;;;30.60;;
75171;SDS011;63750;52.418;20.742;2022-10-13T08:08:37;35.20;;;29.40;;
75171;SDS011;63750;52.418;20.742;2022-10-13T08:11:06;33.20;;;26.50;;
75171;SDS011;63750;52.418;20.742;2022-10-13T08:13:38;30.90;;;25.30;;
75171;SDS011;63750;52.418;20.742;2022-10-13T08:16:07;32.30;;;24.80;;
75171;SDS011;63750;52.418;20.742;2022-10-13T08:18:36;30.40;;;25.10;;
75171;SDS011;63750;52.418;20.742;2022-10-13T08:21:05;30.60;;;22.20;;
75171;SDS011;63750;52.418;20.742;2022-10-13T08:23:35;25.80;;;22.20;;
75171;SDS011;63750;52.418;20.742;2022-10-13T08:26:03;25.80;;;20.60;;
75171;SDS011;63750;52.418;20.742;2022-10-13T08:28:39;22.70;;;19.90;;
75171;SDS011;63750;52.418;20.742;2022-10-13T08:31:07;23.80;;;18.00;;
75171;SDS011;63750;52.418;20.742;2022-10-13T08:33:35;21.00;;;17.40;;
75171;SDS011;63750;52.418;20.742;2022-10-13T08:36:04;25.10;;;17.70;;
75171;SDS011;63750;52.418;20.742;2022-10-13T08:38:33;19.80;;;16.00;;
75171;SDS011;63750;52.418;20.742;2022-10-13T08:41:02;22.80;;;15.60;;
75171;SDS011;63750;52.418;20.742;2022-10-13T08:43:41;21.30;;;15.70;;
75171;SDS011;63750;52.418;20.742;2022-10-13T08:46:14;19.70;;;14.20;;
75171;SDS011;63750;52.418;20.742;2022-10-13T08:48:44;22.20;;;14.90;;
75171;SDS011;63750;52.418;20.742;2022-10-13T08:51:13;15.60;;;12.50;;
75171;SDS011;63750;52.418;20.742;2022-10-13T08:53:42;19.00;;;15.10;;
75171;SDS011;63750;52.418;20.742;2022-10-13T08:56:14;16.90;;;12.70;;
75171;SDS011;63750;52.418;20.742;2022-10-13T08:58:45;16.00;;;11.40;;
75171;SDS011;63750;52.418;20.742;2022-10-13T09:01:16;16.20;;;10.00;;
75171;SDS011;63750;52.418;20.742;2022-10-13T09:03:48;18.00;;;9.20;;
75171;SDS011;63750;52.418;20.742;2022-10-13T09:06:20;13.20;;;9.20;;
75171;SDS011;63750;52.418;20.742;2022-10-13T09:08:51;12.40;;;8.90;;
75171;SDS011;63750;52.418;20.742;2022-10-13T09:11:22;10.00;;;8.30;;
75171;SDS011;63750;52.418;20.742;2022-10-13T09:13:54;8.20;;;7.30;;
75171;SDS011;63750;52.418;20.742;2022-10-13T09:16:29;10.20;;;7.60;;
75171;SDS011;63750;52.418;20.742;2022-10-13T09:19:12;8.70;;;6.50;;
75171;SDS011;63750;52.418;20.742;2022-10-13T09:21:46;10.00;;;6.90;;
75171;SDS011;63750;52.418;20.742;2022-10-13T09:24:14;7.70;;;6.00;;
75171;SDS011;63750;52.418;20.742;2022-10-13T09:26:46;9.40;;;6.80;;
75171;SDS011;63750;52.418;20.742;2022-10-13T09:29:17;10.00;;;5.80;;
75171;SDS011;63750;52.418;20.742;2022-10-13T09:31:47;8.00;;;5.90;;
75171;SDS011;63750;52.418;20.742;2022-10-13T09:34:22;8.60;;;5.50;;
75171;SDS011;63750;52.418;20.742;2022-10-13T09:36:57;10.00;;;6.20;;
75171;SDS011;63750;52.418;20.742;2022-10-13T09:39:27;9.20;;;5.70;;
75171;SDS011;63750;52.418;20.742;2022-10-13T09:42:17;8.50;;;5.10;;
75171;SDS011;63750;52.418;20.742;2022-10-13T09:44:55;10.70;;;6.70;;
75171;SDS011;63750;52.418;20.742;2022-10-13T09:47:25;7.30;;;6.10;;
75171;SDS011;63750;52.418;20.742;2022-10-13T09:50:01;6.30;;;5.30;;
75171;SDS011;63750;52.418;20.742;2022-10-13T09:52:41;6.70;;;5.50;;
75171;SDS011;63750;52.418;20.742;2022-10-13T09:55:27;9.00;;;6.00;;
75171;SDS011;63750;52.418;20.742;2022-10-13T09:57:59;11.50;;;6.90;;
75171;SDS011;63750;52.418;20.742;2022-10-13T10:00:32;8.50;;;6.40;;
75171;SDS011;63750;52.418;20.742;2022-10-13T10:03:03;8.50;;;6.40;;
75171;SDS011;63750;52.418;20.742;2022-10-13T10:05:40;9.20;;;6.00;;
75171;SDS011;63750;52.418;20.742;2022-10-13T10:08:14;9.80;;;6.90;;
75171;SDS011;63750;52.418;20.742;2022-10-13T10:10:46;8.10;;;6.60;;
75171;SDS011;63750;52.418;20.742;2022-10-13T10:13:14;8.50;;;6.30;;
75171;SDS011;63750;52.418;20.742;2022-10-13T10:15:48;8.90;;;7.30;;
75171;SDS011;63750;52.418;20.742;2022-10-13T10:18:23;11.00;;;7.20;;
75171;SDS011;63750;52.418;20.742;2022-10-13T10:21:01;11.30;;;7.60;;
75171;SDS011;63750;52.418;20.742;2022-10-13T10:23:38;11.10;;;7.00;;
75171;SDS011;63750;52.418;20.742;2022-10-13T10:26:14;8.60;;;7.70;;
75171;SDS011;63750;52.418;20.742;2022-10-13T10:28:51;10.70;;;7.80;;
75171;SDS011;63750;52.418;20.742;2022-10-13T10:31:34;9.50;;;7.60;;
75171;SDS011;63750;52.418;20.742;2022-10-13T10:34:18;10.60;;;7.50;;
75171;SDS011;63750;52.418;20.742;2022-10-13T10:37:01;8.30;;;7.30;;
75171;SDS011;63750;52.418;20.742;2022-10-13T10:39:40;8.00;;;6.50;;
75171;SDS011;63750;52.418;20.742;2022-10-13T10:42:22;11.50;;;7.70;;
75171;SDS011;63750;52.418;20.742;2022-10-13T10:45:11;8.70;;;6.40;;
75171;SDS011;63750;52.418;20.742;2022-10-13T10:47:43;9.20;;;6.90;;
75171;SDS011;63750;52.418;20.742;2022-10-13T10:50:16;10.10;;;7.10;;
75171;SDS011;63750;52.418;20.742;2022-10-13T10:52:47;9.20;;;7.00;;
75171;SDS011;63750;52.418;20.742;2022-10-13T10:55:23;9.90;;;7.60;;
75171;SDS011;63750;52.418;20.742;2022-10-13T10:58:00;12.00;;;7.80;;
75171;SDS011;63750;52.418;20.742;2022-10-13T11:00:40;10.50;;;7.10;;
75171;SDS011;63750;52.418;20.742;2022-10-13T11:03:20;10.70;;;6.90;;
75171;SDS011;63750;52.418;20.742;2022-10-13T11:06:04;11.10;;;7.80;;
75171;SDS011;63750;52.418;20.742;2022-10-13T11:08:47;11.50;;;7.60;;
75171;SDS011;63750;52.418;20.742;2022-10-13T11:11:32;10.80;;;7.80;;
75171;SDS011;63750;52.418;20.742;2022-10-13T11:14:19;10.90;;;7.20;;
75171;SDS011;63750;52.418;20.742;2022-10-13T11:17:10;9.10;;;7.20;;
75171;SDS011;63750;52.418;20.742;2022-10-13T11:19:43;9.70;;;7.30;;
75171;SDS011;63750;52.418;20.742;2022-10-13T11:22:16;9.30;;;6.80;;
75171;SDS011;63750;52.418;20.742;2022-10-13T11:24:50;9.90;;;7.20;;
75171;SDS011;63750;52.418;20.742;2022-10-13T11:33:06;8.10;;;5.90;;
75171;SDS011;63750;52.418;20.742;2022-10-13T11:39:07;9.60;;;6.10;;
75171;SDS011;63750;52.418;20.742;2022-10-13T11:41:53;9.70;;;6.40;;
75171;SDS011;63750;52.418;20.742;2022-10-13T11:44:29;6.60;;;5.60;;
75171;SDS011;63750;52.418;20.742;2022-10-13T11:47:10;9.80;;;5.90;;
75171;SDS011;63750;52.418;20.742;2022-10-13T11:49:56;9.80;;;5.50;;
75171;SDS011;63750;52.418;20.742;2022-10-13T11:52:39;7.20;;;4.80;;
75171;SDS011;63750;52.418;20.742;2022-10-13T11:55:22;9.10;;;5.40;;
75171;SDS011;63750;52.418;20.742;2022-10-13T11:58:11;6.90;;;5.20;;
75171;SDS011;63750;52.418;20.742;2022-10-13T12:03:32;7.50;;;5.00;;
75171;SDS011;63750;52.418;20.742;2022-10-13T12:06:03;7.30;;;4.60;;
75171;SDS011;63750;52.418;20.742;2022-10-13T12:08:34;9.90;;;5.00;;
75171;SDS011;63750;52.418;20.742;2022-10-13T12:11:03;7.50;;;5.20;;
75171;SDS011;63750;52.418;20.742;2022-10-13T12:13:32;7.20;;;4.90;;
75171;SDS011;63750;52.418;20.742;2022-10-13T12:16:01;7.60;;;5.10;;
75171;SDS011;63750;52.418;20.742;2022-10-13T12:18:32;8.00;;;4.90;;
75171;SDS011;63750;52.418;20.742;2022-10-13T12:21:03;7.60;;;5.60;;
75171;SDS011;63750;52.418;20.742;2022-10-13T12:23:36;7.90;;;5.00;;
75171;SDS011;63750;52.418;20.742;2022-10-13T12:26:04;6.30;;;4.60;;
75171;SDS011;63750;52.418;20.742;2022-10-13T12:28:43;8.40;;;5.40;;
75171;SDS011;63750;52.418;20.742;2022-10-13T12:31:18;7.50;;;5.50;;
75171;SDS011;63750;52.418;20.742;2022-10-13T12:33:54;12.40;;;5.90;;
75171;SDS011;63750;52.418;20.742;2022-10-13T12:36:26;5.60;;;5.00;;
75171;SDS011;63750;52.418;20.742;2022-10-13T12:38:57;7.20;;;5.50;;
75171;SDS011;63750;52.418;20.742;2022-10-13T12:41:28;7.50;;;5.40;;
75171;SDS011;63750;52.418;20.742;2022-10-13T12:43:59;10.10;;;5.40;;
75171;SDS011;63750;52.418;20.742;2022-10-13T12:46:40;7.70;;;5.20;;
75171;SDS011;63750;52.418;20.742;2022-10-13T12:49:13;9.30;;;5.00;;
75171;SDS011;63750;52.418;20.742;2022-10-13T12:51:46;7.30;;;5.10;;
75171;SDS011;63750;52.418;20.742;2022-10-13T12:54:18;8.70;;;5.70;;
75171;SDS011;63750;52.418;20.742;2022-10-13T12:56:53;8.10;;;5.40;;
75171;SDS011;63750;52.418;20.742;2022-10-13T12:59:24;8.30;;;5.90;;
75171;SDS011;63750;52.418;20.742;2022-10-13T13:01:55;8.30;;;5.90;;
75171;SDS011;63750;52.418;20.742;2022-10-13T13:04:31;8.50;;;5.70;;
75171;SDS011;63750;52.418;20.742;2022-10-13T13:07:21;8.20;;;5.80;;
75171;SDS011;63750;52.418;20.742;2022-10-13T13:10:07;9.20;;;5.80;;
75171;SDS011;63750;52.418;20.742;2022-10-13T13:12:41;8.40;;;6.20;;
75171;SDS011;63750;52.418;20.742;2022-10-13T13:15:18;8.30;;;6.10;;
75171;SDS011;63750;52.418;20.742;2022-10-13T13:18:20;8.40;;;5.60;;
75171;SDS011;63750;52.418;20.742;2022-10-13T13:20:59;8.40;;;5.80;;
75171;SDS011;63750;52.418;20.742;2022-10-13T13:23:30;10.30;;;7.20;;
75171;SDS011;63750;52.418;20.742;2022-10-13T13:26:05;6.60;;;5.80;;
75171;SDS011;63750;52.418;20.742;2022-10-13T13:28:38;7.80;;;5.60;;
75171;SDS011;63750;52.418;20.742;2022-10-13T13:31:14;8.30;;;6.20;;
75171;SDS011;63750;52.418;20.742;2022-10-13T13:33:44;9.60;;;6.00;;
75171;SDS011;63750;52.418;20.742;2022-10-13T13:36:14;7.40;;;5.80;;
75171;SDS011;63750;52.418;20.742;2022-10-13T13:38:45;8.80;;;5.10;;
75171;SDS011;63750;52.418;20.742;2022-10-13T13:41:13;7.40;;;5.40;;
75171;SDS011;63750;52.418;20.742;2022-10-13T13:43:42;7.90;;;5.60;;
75171;SDS011;63750;52.418;20.742;2022-10-13T13:46:13;9.80;;;5.80;;
75171;SDS011;63750;52.418;20.742;2022-10-13T13:48:43;10.20;;;6.00;;
75171;SDS011;63750;52.418;20.742;2022-10-13T13:51:11;6.20;;;5.00;;
75171;SDS011;63750;52.418;20.742;2022-10-13T13:53:41;6.90;;;5.70;;
75171;SDS011;63750;52.418;20.742;2022-10-13T13:56:10;7.80;;;5.80;;
75171;SDS011;63750;52.418;20.742;2022-10-13T13:58:40;8.60;;;5.30;;
75171;SDS011;63750;52.418;20.742;2022-10-13T14:01:10;9.20;;;5.80;;
75171;SDS011;63750;52.418;20.742;2022-10-13T14:03:39;6.90;;;5.50;;
75171;SDS011;63750;52.418;20.742;2022-10-13T14:06:07;8.00;;;5.60;;
75171;SDS011;63750;52.418;20.742;2022-10-13T14:08:42;7.40;;;6.00;;
75171;SDS011;63750;52.418;20.742;2022-10-13T14:11:10;8.50;;;5.90;;
75171;SDS011;63750;52.418;20.742;2022-10-13T14:13:38;8.80;;;6.00;;
75171;SDS011;63750;52.418;20.742;2022-10-13T14:16:07;10.50;;;6.20;;
75171;SDS011;63750;52.418;20.742;2022-10-13T14:18:40;12.60;;;6.80;;
75171;SDS011;63750;52.418;20.742;2022-10-13T14:21:09;8.00;;;6.20;;
75171;SDS011;63750;52.418;20.742;2022-10-13T14:23:38;8.60;;;6.00;;
75171;SDS011;63750;52.418;20.742;2022-10-13T14:26:06;10.00;;;6.40;;
75171;SDS011;63750;52.418;20.742;2022-10-13T14:28:35;9.30;;;6.70;;
75171;SDS011;63750;52.418;20.742;2022-10-13T14:31:06;11.10;;;6.60;;
75171;SDS011;63750;52.418;20.742;2022-10-13T14:33:34;9.20;;;6.80;;
75171;SDS011;63750;52.418;20.742;2022-10-13T14:36:03;8.90;;;7.10;;
75171;SDS011;63750;52.418;20.742;2022-10-13T14:38:33;10.70;;;6.70;;
75171;SDS011;63750;52.418;20.742;2022-10-13T14:41:02;10.50;;;6.80;;
75171;SDS011;63750;52.418;20.742;2022-10-13T14:43:31;11.10;;;6.50;;
75171;SDS011;63750;52.418;20.742;2022-10-13T14:46:03;10.70;;;7.20;;
75171;SDS011;63750;52.418;20.742;2022-10-13T14:48:32;12.20;;;8.60;;
75171;SDS011;63750;52.418;20.742;2022-10-13T14:51:03;11.10;;;6.90;;
75171;SDS011;63750;52.418;20.742;2022-10-13T14:53:33;10.50;;;7.00;;